Time;durP1;ratioP1;P1;durP2;ratioP2;P2;SDS_P1;SDS_P2;PMS_P1;PMS_P2;Temp;Humidity;BMP_temperature;BMP_pressure;BME280_temperature;BME280_humidity;BME280_pressure;Samples;Min_cycle;Max_cycle;Signal;HPM_P1;HPM_P2
2022/07/08 06:44:39;;;;;;;16.98;7.30;;;;;;;20.79;60.31;93926.84;5124980;28;20055;-73
2022/07/08 06:47:05;;;;;;;15.00;7.55;;;;;;;20.90;60.36;93927.66;5125600;28;20225;-73
2022/07/08 06:49:30;;;;;;;20.25;7.13;;;;;;;21.06;59.92;93919.25;5124861;28;20018;-73
2022/07/08 06:51:56;;;;;;;15.10;6.68;;;;;;;21.12;58.97;93927.81;5124728;28;20027;-73
2022/07/08 06:54:42;;;;;;;15.95;6.78;;;;;;;21.16;58.82;93915.84;5125139;28;20031;-73
2022/07/08 06:57:07;;;;;;;15.88;7.13;;;;;;;21.23;58.54;93902.34;5124724;28;20055;-73
2022/07/08 06:59:34;;;;;;;15.13;6.13;;;;;;;21.35;58.56;93908.56;5124918;28;20068;-74
2022/07/08 07:02:00;;;;;;;13.15;5.85;;;;;;;21.48;57.70;93900.94;5124928;28;20024;-73
2022/07/08 07:04:26;;;;;;;13.48;6.32;;;;;;;21.61;56.86;93900.19;5124821;28;20057;-72
2022/07/08 07:06:52;;;;;;;9.82;6.55;;;;;;;21.66;56.86;93904.50;5125066;28;20027;-75
2022/07/08 07:09:17;;;;;;;16.65;6.40;;;;;;;21.61;56.35;93897.47;5124780;28;20330;-78
2022/07/08 07:11:43;;;;;;;12.23;5.82;;;;;;;21.72;56.98;93894.81;5125060;28;20020;-78
2022/07/08 07:14:08;;;;;;;22.50;6.68;;;;;;;21.80;56.90;93893.69;5124914;28;20027;-77
2022/07/08 07:16:34;;;;;;;13.02;5.63;;;;;;;21.94;56.44;93895.66;5124877;28;20040;-77
2022/07/08 07:18:59;;;;;;;18.08;5.63;;;;;;;22.02;55.81;93891.00;5124889;28;20314;-77
2022/07/08 07:21:25;;;;;;;11.27;5.45;;;;;;;22.09;54.04;93891.03;5124747;28;20028;-76
2022/07/08 07:23:50;;;;;;;12.18;5.18;;;;;;;22.18;54.94;93887.94;5124664;28;20026;-76
2022/07/08 07:26:16;;;;;;;11.32;5.30;;;;;;;22.18;53.09;93893.34;5124651;28;20110;-85
2022/07/08 07:28:41;;;;;;;8.57;5.18;;;;;;;22.27;52.85;93884.84;5125045;28;20011;-88
2022/07/08 07:31:07;;;;;;;9.23;4.63;;;;;;;22.34;53.79;93887.59;5106773;28;20027;-88
2022/07/08 07:33:32;;;;;;;9.80;6.07;;;;;;;22.32;52.40;93893.41;5124881;28;20019;-76
2022/07/08 07:35:58;;;;;;;8.45;4.28;;;;;;;22.35;52.24;93891.88;5124347;28;20217;-81
2022/07/08 07:38:23;;;;;;;7.43;4.88;;;;;;;22.49;53.08;93891.88;5124146;28;20026;-79
2022/07/08 07:40:49;;;;;;;6.15;4.30;;;;;;;22.64;52.75;93900.78;5124517;28;20029;-81
2022/07/08 07:43:14;;;;;;;5.93;3.95;;;;;;;22.69;51.12;93899.63;5124312;28;20027;-81
2022/07/08 07:45:40;;;;;;;7.57;4.20;;;;;;;22.72;50.89;93893.41;5124122;28;20310;-79
2022/07/08 07:48:05;;;;;;;6.18;3.50;;;;;;;22.88;50.14;93899.22;5124312;28;20374;-77
2022/07/08 07:50:31;;;;;;;6.95;3.10;;;;;;;23.01;50.30;93908.53;5124478;28;20035;-77
2022/07/08 07:52:56;;;;;;;14.85;3.55;;;;;;;23.10;47.46;93902.72;5124135;28;20332;-79
2022/07/08 07:55:22;;;;;;;4.97;3.22;;;;;;;23.12;46.95;93905.00;5124255;28;20027;-78
2022/07/08 07:57:48;;;;;;;8.25;4.07;;;;;;;23.19;47.26;93892.19;5124241;28;20079;-79
2022/07/08 08:00:15;;;;;;;13.27;4.32;;;;;;;23.18;48.73;93893.38;5124090;28;20020;-83
2022/07/08 08:02:41;;;;;;;9.07;3.85;;;;;;;23.17;49.07;93902.69;5122850;28;20034;-84
2022/07/08 08:05:08;;;;;;;9.23;3.75;;;;;;;23.29;49.13;93896.03;5124041;28;20019;-83
2022/07/08 08:07:34;;;;;;;5.90;3.53;;;;;;;23.40;48.57;93898.72;5123901;28;20219;-79
2022/07/08 08:10:01;;;;;;;6.05;3.65;;;;;;;23.47;47.85;93897.91;5105661;28;20015;-79
2022/07/08 08:12:27;;;;;;;6.85;3.53;;;;;;;23.49;47.90;93893.66;5123685;28;20031;-79
2022/07/08 08:14:52;;;;;;;8.88;3.60;;;;;;;23.44;48.32;93913.84;5123663;28;20329;-78
2022/07/08 08:17:18;;;;;;;9.90;3.88;;;;;;;23.63;47.12;93901.75;5123922;28;20023;-79
2022/07/08 08:19:43;;;;;;;7.97;3.53;;;;;;;23.79;47.04;93903.25;5123442;28;20273;-78
2022/07/08 08:22:08;;;;;;;5.85;3.53;;;;;;;23.91;46.84;93904.75;5123382;28;20266;-79
2022/07/08 08:24:34;;;;;;;9.02;3.95;;;;;;;24.01;46.57;93898.47;5123623;28;20157;-79
2022/07/08 08:26:59;;;;;;;5.70;3.30;;;;;;;24.03;45.96;93898.84;5123633;28;20255;-78
2022/07/08 08:29:25;;;;;;;4.63;3.25;;;;;;;24.06;45.24;93898.06;5123319;28;20046;-78
2022/07/08 08:31:50;;;;;;;5.72;3.17;;;;;;;24.07;45.41;93888.72;5123493;28;20019;-77
2022/07/08 08:34:15;;;;;;;4.13;2.90;;;;;;;24.03;45.18;93890.69;5123479;28;20110;-77
2022/07/08 08:36:41;;;;;;;9.30;2.70;;;;;;;24.06;43.41;93889.13;5123390;28;20023;-77
2022/07/08 08:39:06;;;;;;;3.58;2.30;;;;;;;23.97;44.06;93881.41;5123172;28;20033;-79
2022/07/08 08:41:33;;;;;;;5.95;3.22;;;;;;;23.94;45.18;93887.66;5105305;28;20360;-76
2022/07/08 08:43:59;;;;;;;6.80;3.03;;;;;;;24.03;45.28;93883.28;5123519;28;20026;-78
2022/07/08 08:46:24;;;;;;;8.38;4.07;;;;;;;24.10;44.52;93892.59;5123155;28;20063;-82
2022/07/08 08:48:56;;;;;;;5.95;3.10;;;;;;;24.06;43.85;93879.03;5123387;28;20016;-80
2022/07/08 08:51:22;;;;;;;3.38;2.55;;;;;;;24.25;44.27;93879.69;5123390;28;20209;-81
2022/07/08 08:53:48;;;;;;;5.40;3.92;;;;;;;24.48;43.92;93888.03;5105122;28;20047;-78
2022/07/08 08:56:16;;;;;;;5.95;3.15;;;;;;;24.67;44.13;93875.88;5123244;28;20015;-77
2022/07/08 08:58:46;;;;;;;6.10;3.00;;;;;;;24.60;43.52;93878.66;5123117;28;20034;-80
2022/07/08 09:01:13;;;;;;;13.75;2.90;;;;;;;24.63;43.21;93872.41;5123890;28;20020;-90
2022/07/08 09:03:38;;;;;;;5.00;3.20;;;;;;;24.72;43.55;93869.22;5109322;28;20023;-92
2022/07/08 09:06:04;;;;;;;4.32;3.03;;;;;;;24.77;42.54;93863.31;5129448;28;20023;-90
2022/07/08 09:08:33;;;;;;;6.32;3.38;;;;;;;24.70;42.48;93869.59;5127522;28;20050;-92
2022/07/08 09:11:00;;;;;;;6.45;2.92;;;;;;;24.68;43.91;93871.19;5125910;28;20027;-91
2022/07/08 09:13:26;;;;;;;3.85;2.78;;;;;;;24.78;43.26;93875.78;5125797;28;20055;-92
2022/07/08 09:16:00;;;;;;;8.93;2.95;;;;;;;24.89;42.21;93862.03;5129978;28;20026;-92
2022/07/08 09:18:38;;;;;;;14.13;3.13;;;;;;;25.01;42.74;93851.41;5128552;28;20047;-92
2022/07/08 09:21:04;;;;;;;5.93;2.40;;;;;;;25.17;42.49;93847.34;5128557;28;20027;-92
2022/07/08 09:23:32;;;;;;;5.78;2.95;;;;;;;25.32;40.79;93847.97;5128584;28;20031;-91
2022/07/08 09:26:00;;;;;;;3.65;2.13;;;;;;;25.47;39.53;93840.41;5128164;28;20035;-92
2022/07/08 09:28:35;;;;;;;7.65;2.70;;;;;;;25.60;40.66;93842.19;5128170;28;20023;-92
2022/07/08 09:31:13;;;;;;;6.00;2.45;;;;;;;25.74;40.02;93846.66;5128714;28;20318;-93
2022/07/08 09:33:39;;;;;;;6.68;2.65;;;;;;;25.79;40.09;93851.69;5129050;28;20329;-92
2022/07/08 09:36:07;;;;;;;4.47;2.40;;;;;;;25.91;39.78;93842.19;5128528;28;20023;-91
2022/07/08 09:38:35;;;;;;;3.53;2.08;;;;;;;25.98;38.52;93839.34;5128735;28;20047;-93
2022/07/08 09:41:03;;;;;;;5.07;2.30;;;;;;;26.12;38.74;93830.19;5129437;28;20023;-91
2022/07/08 09:43:30;;;;;;;8.43;2.78;;;;;;;26.23;39.02;93827.28;5127706;28;20173;-93
2022/07/08 09:46:03;;;;;;;6.72;2.42;;;;;;;26.35;38.48;93836.84;5126196;28;20050;-93
2022/07/08 09:48:29;;;;;;;6.00;2.65;;;;;;;26.50;38.13;93826.44;5127900;28;20041;-90
2022/07/08 09:50:55;;;;;;;3.42;2.28;;;;;;;26.58;37.88;93819.72;5128662;28;20024;-92
2022/07/08 09:53:30;;;;;;;3.72;2.50;;;;;;;26.64;37.27;93828.22;5128645;28;20031;-92
2022/07/08 09:55:56;;;;;;;4.82;2.50;;;;;;;26.66;37.11;93829.34;5127146;28;20337;-93
2022/07/08 09:58:24;;;;;;;4.32;2.17;;;;;;;26.74;36.14;93833.47;5109225;28;20023;-92
2022/07/08 10:00:52;;;;;;;5.28;2.38;;;;;;;26.81;36.29;93821.66;5127569;28;20034;-92
2022/07/08 10:03:21;;;;;;;6.20;2.17;;;;;;;26.89;35.04;93814.88;5127569;28;20024;-92
2022/07/08 10:05:47;;;;;;;5.00;2.05;;;;;;;26.96;35.71;93819.44;5127200;28;20329;-93
2022/07/08 10:08:16;;;;;;;5.07;2.17;;;;;;;27.06;35.84;93801.28;5127508;28;20019;-91
2022/07/08 10:10:43;;;;;;;5.47;2.10;;;;;;;27.22;34.19;93804.09;5127423;28;20148;-92
2022/07/08 10:13:13;;;;;;;5.78;2.47;;;;;;;27.25;35.97;93803.28;5127870;28;20023;-91
2022/07/08 10:15:40;;;;;;;7.53;2.80;;;;;;;27.27;35.73;93784.47;5109098;28;20139;-91
2022/07/08 10:18:16;;;;;;;6.22;2.10;;;;;;;27.30;35.10;93791.84;5127300;28;20023;-91
2022/07/08 10:20:48;;;;;;;3.22;2.03;;;;;;;27.43;33.47;93783.75;5127107;28;20031;-91
2022/07/08 10:23:30;;;;;;;5.72;2.38;;;;;;;27.48;34.08;93774.28;5126860;28;20037;-91
2022/07/08 10:25:58;;;;;;;5.30;2.15;;;;;;;27.54;34.47;93775.31;5107593;28;20030;-91
2022/07/08 10:28:37;;;;;;;5.03;2.15;;;;;;;27.54;33.54;93764.38;5126179;28;20019;-91
2022/07/08 10:31:03;;;;;;;5.43;2.42;;;;;;;27.49;33.99;93768.38;5127041;28;20023;-91
2022/07/08 10:33:37;;;;;;;2.75;1.92;;;;;;;27.44;33.56;93771.63;5127220;28;20019;-90
2022/07/08 10:36:06;;;;;;;6.47;3.00;;;;;;;27.36;33.74;93773.75;5126648;28;20019;-92
2022/07/08 10:38:36;;;;;;;5.10;2.35;;;;;;;27.31;32.93;93771.50;5127131;28;20036;-91
2022/07/08 10:41:13;;;;;;;3.50;2.10;;;;;;;27.38;33.33;93765.88;5109327;28;20042;-92
2022/07/08 10:44:00;;;;;;;7.20;2.28;;;;;;;27.55;33.42;93768.66;5108187;28;20080;-92
2022/07/08 10:46:31;;;;;;;5.45;2.13;;;;;;;27.60;32.79;93768.94;5109215;28;20095;-92
2022/07/08 10:49:16;;;;;;;;;;;;;;;;;;;;;
2022/07/08 10:51:51;;;;;;;3.85;2.50;;;;;;;27.88;32.57;93783.19;5125520;28;20051;-92
2022/07/08 10:54:37;;;;;;;5.63;2.80;;;;;;;27.94;33.54;93791.69;5126569;28;20024;-92
2022/07/08 10:57:22;;;;;;;3.90;2.45;;;;;;;27.96;33.01;93773.63;5125861;28;20024;-92
2022/07/08 11:03:05;;;;;;;5.13;2.35;;;;;;;28.05;33.59;93764.81;5108825;28;20093;-83
2022/07/08 11:05:38;;;;;;;10.15;2.38;;;;;;;28.10;33.89;93761.56;5124990;28;20077;-89
2022/07/08 11:08:23;;;;;;;7.13;3.65;;;;;;;28.25;34.86;93763.97;5107580;28;20024;-86
2022/07/08 11:10:55;;;;;;;6.40;2.63;;;;;;;28.40;33.97;93757.69;5124693;28;20023;-85
2022/07/08 11:13:22;;;;;;;4.22;1.83;;;;;;;28.47;32.35;93756.75;5125024;28;20029;-85
2022/07/08 11:15:48;;;;;;;4.72;2.00;;;;;;;28.56;31.08;93751.44;5124292;28;20020;-82
2022/07/08 11:18:21;;;;;;;5.18;2.00;;;;;;;28.59;30.89;93747.84;5123820;28;20223;-82
2022/07/08 11:20:48;;;;;;;8.63;2.28;;;;;;;28.70;32.48;93741.28;5124508;28;20222;-82
2022/07/08 11:23:15;;;;;;;6.32;2.05;;;;;;;28.73;30.71;93743.94;5124715;28;20019;-82
2022/07/08 11:25:40;;;;;;;6.22;2.10;;;;;;;28.75;31.80;93743.53;5125024;28;20028;-82
2022/07/08 11:28:20;;;;;;;3.05;1.70;;;;;;;28.81;31.26;93726.09;5124787;28;20024;-83
2022/07/08 11:30:45;;;;;;;3.42;2.10;;;;;;;28.95;32.28;93737.91;5124620;28;20026;-82
2022/07/08 11:33:11;;;;;;;3.45;1.70;;;;;;;29.05;32.11;93736.84;5125026;28;20206;-83
2022/07/08 11:35:38;;;;;;;7.65;1.80;;;;;;;28.95;31.65;93729.66;5124754;28;20028;-83
2022/07/08 11:38:04;;;;;;;5.57;2.47;;;;;;;28.92;31.83;93733.25;5123998;28;20210;-84
2022/07/08 11:40:41;;;;;;;2.55;1.55;;;;;;;28.94;32.09;93717.94;5124308;28;20094;-81
2022/07/08 11:43:13;;;;;;;8.00;2.05;;;;;;;28.94;31.57;93723.41;5124435;28;20016;-80
2022/07/08 11:45:38;;;;;;;8.30;2.13;;;;;;;28.80;31.40;93729.28;5124506;28;20039;-83
2022/07/08 11:48:07;;;;;;;9.45;2.15;;;;;;;28.67;32.60;93731.22;5124493;28;20129;-82
2022/07/08 11:50:37;;;;;;;6.90;2.05;;;;;;;28.66;32.98;93724.16;5124168;28;20052;-81
2022/07/08 11:53:03;;;;;;;13.55;2.63;;;;;;;28.37;34.27;93720.19;5125146;28;20095;-90
2022/07/08 11:55:28;;;;;;;8.40;2.83;;;;;;;28.12;35.43;93718.06;5125585;28;20030;-88
2022/07/08 11:57:59;;;;;;;9.32;2.88;;;;;;;27.85;36.94;93732.00;5124976;28;20023;-87
2022/07/08 12:00:26;;;;;;;5.90;1.97;;;;;;;27.50;38.11;93733.56;5126207;28;20199;-89
2022/07/08 12:02:53;;;;;;;9.68;2.42;;;;;;;27.21;37.78;93734.16;5127941;28;20015;-90
2022/07/08 12:05:18;;;;;;;4.63;2.38;;;;;;;26.97;38.81;93736.97;5128427;28;20027;-88
2022/07/08 12:07:44;;;;;;;7.30;2.17;;;;;;;26.68;39.34;93722.31;5125512;28;20300;-87
2022/07/08 12:10:09;;;;;;;5.13;2.03;;;;;;;26.41;39.70;93720.44;5125484;28;20023;-90
2022/07/08 12:12:35;;;;;;;5.60;2.15;;;;;;;26.19;39.78;93730.97;5124406;28;20101;-87
2022/07/08 12:15:11;;;;;;;9.20;2.60;;;;;;;25.89;40.47;93731.81;5123908;28;20348;-87
2022/07/08 12:17:37;;;;;;;13.68;2.30;;;;;;;25.52;41.35;93728.84;5105996;28;20050;-85
2022/07/08 12:20:03;;;;;;;5.65;2.60;;;;;;;25.38;42.10;93739.94;5124136;28;20024;-86
2022/07/08 12:22:49;;;;;;;10.43;2.35;;;;;;;25.21;42.28;93747.94;5124112;28;20019;-86
2022/07/08 12:25:19;;;;;;;8.27;1.98;;;;;;;25.03;43.00;93748.16;5124708;28;20028;-89
2022/07/08 12:28:02;;;;;;;8.90;2.22;;;;;;;24.91;42.32;93761.53;5124949;28;20095;-89
2022/07/08 12:30:29;;;;;;;11.38;2.45;;;;;;;24.79;43.54;93768.28;5124352;28;20020;-87
2022/07/08 12:32:59;;;;;;;7.20;2.08;;;;;;;24.73;42.83;93767.19;5124109;28;20023;-88
2022/07/08 12:35:30;;;;;;;8.65;2.20;;;;;;;24.65;42.33;93758.34;5123907;28;20034;-87
2022/07/08 12:38:10;;;;;;;11.75;2.38;;;;;;;24.53;41.08;93759.63;5123947;28;20388;-87
2022/07/08 12:40:43;;;;;;;5.65;1.77;;;;;;;24.42;41.59;93780.69;5105909;28;20025;-89
2022/07/08 12:43:11;;;;;;;4.43;2.30;;;;;;;24.34;40.05;93769.13;5123975;28;20313;-87
2022/07/08 12:45:37;;;;;;;4.53;2.00;;;;;;;24.25;40.57;93781.63;5123954;28;20047;-89
2022/07/08 12:48:03;;;;;;;8.52;2.42;;;;;;;24.19;40.53;93779.34;5123084;28;20042;-90
2022/07/08 12:50:31;;;;;;;5.18;2.10;;;;;;;24.20;40.95;93785.53;5124802;28;20020;-85
2022/07/08 12:52:56;;;;;;;7.63;2.15;;;;;;;24.18;41.27;93796.88;5124409;28;20302;-87
2022/07/08 12:55:22;;;;;;;7.40;2.65;;;;;;;24.10;42.25;93798.09;5124328;28;20042;-89
2022/07/08 12:57:48;;;;;;;4.75;2.38;;;;;;;23.99;45.04;93813.72;5123702;28;20145;-84
2022/07/08 13:00:14;;;;;;;3.20;2.33;;;;;;;23.94;47.11;93816.88;5123469;28;20107;-86
2022/07/08 13:02:40;;;;;;;6.13;2.38;;;;;;;23.61;48.11;93817.03;5123874;28;20020;-84
2022/07/08 13:05:06;;;;;;;5.35;3.08;;;;;;;23.44;47.98;93812.47;5123513;28;20065;-86
2022/07/08 13:07:31;;;;;;;3.72;2.75;;;;;;;23.26;47.86;93820.69;5123353;28;20038;-86
2022/07/08 13:09:57;;;;;;;4.63;2.90;;;;;;;23.10;48.35;93806.78;5123396;28;20011;-87
2022/07/08 13:12:23;;;;;;;6.22;2.63;;;;;;;22.98;49.35;93814.16;5123448;28;20011;-86
2022/07/08 13:14:50;;;;;;;5.53;3.42;;;;;;;22.93;50.52;93802.91;5123147;28;20039;-84
2022/07/08 13:17:15;;;;;;;8.23;2.95;;;;;;;22.81;49.34;93807.59;5105384;28;20035;-86
2022/07/08 13:19:41;;;;;;;9.63;3.22;;;;;;;22.81;50.44;93810.31;5123447;28;20024;-86
2022/07/08 13:22:08;;;;;;;4.22;2.90;;;;;;;22.77;54.22;93806.06;5123562;28;20087;-87
2022/07/08 13:24:34;;;;;;;9.55;3.55;;;;;;;22.75;56.40;93811.13;5123236;28;20030;-86
2022/07/08 13:26:59;;;;;;;6.28;3.40;;;;;;;22.73;55.92;93810.72;5123502;28;20019;-88
2022/07/08 13:29:25;;;;;;;6.28;3.08;;;;;;;22.64;53.30;93809.19;5105604;28;20019;-89
2022/07/08 13:31:50;;;;;;;6.30;3.17;;;;;;;22.57;54.81;93795.66;5123678;28;20027;-84
2022/07/08 13:34:19;;;;;;;4.57;2.90;;;;;;;22.51;53.95;93789.06;5123130;28;20030;-86
2022/07/08 13:36:45;;;;;;;5.18;3.33;;;;;;;22.51;56.77;93790.97;5123185;28;20019;-85
2022/07/08 13:39:10;;;;;;;4.43;2.75;;;;;;;22.46;53.53;93785.97;5123613;28;20262;-85
2022/07/08 13:41:36;;;;;;;3.60;2.92;;;;;;;22.41;55.54;93782.47;5123036;28;20022;-87
2022/07/08 13:44:01;;;;;;;4.40;2.85;;;;;;;22.41;56.08;93774.31;5124136;28;20061;-84
2022/07/08 13:46:27;;;;;;;4.18;2.85;;;;;;;22.47;55.33;93779.34;5123105;28;20031;-82
2022/07/08 13:48:54;;;;;;;4.90;2.58;;;;;;;22.48;53.89;93767.34;5122999;28;20015;-82
2022/07/08 13:51:19;;;;;;;4.22;2.75;;;;;;;22.47;54.08;93763.84;5123289;28;20031;-88
2022/07/08 13:53:45;;;;;;;4.93;2.65;;;;;;;22.45;53.88;93758.03;5122954;28;20090;-86
2022/07/08 13:56:10;;;;;;;4.05;2.78;;;;;;;22.47;55.49;93753.00;5123105;28;20023;-86
2022/07/08 13:58:36;;;;;;;5.03;3.42;;;;;;;22.52;54.97;93744.44;5122927;28;20027;-84
2022/07/08 14:01:04;;;;;;;5.20;2.90;;;;;;;22.65;54.80;93733.91;5126678;28;20015;-88
2022/07/08 14:03:30;;;;;;;4.97;2.60;;;;;;;22.79;53.69;93733.84;5126875;28;20064;-87
2022/07/08 14:05:55;;;;;;;7.28;2.90;;;;;;;22.98;53.51;93731.88;5126388;28;20235;-84
2022/07/08 14:08:21;;;;;;;3.80;3.05;;;;;;;23.17;51.82;93727.91;5126253;28;20091;-84
2022/07/08 14:10:47;;;;;;;4.25;2.92;;;;;;;23.43;51.31;93729.34;5107813;28;20016;-84
2022/07/08 14:13:12;;;;;;;4.93;3.08;;;;;;;23.61;52.11;93726.47;5126251;28;20087;-84
2022/07/08 14:15:38;;;;;;;7.20;3.25;;;;;;;23.74;51.92;93721.34;5126150;28;20248;-84
2022/07/08 14:18:03;;;;;;;6.43;3.00;;;;;;;23.94;51.22;93718.91;5126475;28;20023;-92
2022/07/08 14:20:29;;;;;;;4.07;2.50;;;;;;;24.16;50.17;93730.34;5127297;28;20247;-94
2022/07/08 14:22:54;;;;;;;6.80;2.95;;;;;;;24.35;48.76;93727.06;5127535;28;20367;-89
2022/07/08 14:25:22;;;;;;;4.75;3.08;;;;;;;24.54;47.84;93736.63;5126103;28;20020;-88
2022/07/08 14:27:48;;;;;;;7.03;2.28;;;;;;;24.67;47.69;93720.56;5125893;28;20030;-87
2022/07/08 14:30:13;;;;;;;4.80;2.63;;;;;;;24.81;46.25;93711.41;5126418;28;20087;-89
2022/07/08 14:32:39;;;;;;;4.40;2.60;;;;;;;24.84;42.77;93713.34;5127665;28;20235;-85
2022/07/08 14:35:05;;;;;;;4.95;3.00;;;;;;;24.75;44.09;93713.84;5125825;28;20344;-85
2022/07/08 14:37:31;;;;;;;4.03;2.55;;;;;;;24.64;42.92;93715.91;5126777;28;20028;-90
2022/07/08 14:39:59;;;;;;;3.50;2.53;;;;;;;24.63;42.79;93712.41;5126692;28;20042;-91
2022/07/08 14:42:24;;;;;;;6.40;2.88;;;;;;;24.66;43.00;93718.22;5109025;28;20042;-87
2022/07/08 14:44:49;;;;;;;6.47;2.67;;;;;;;24.66;43.39;93710.81;5127757;28;20040;-88
2022/07/08 14:47:15;;;;;;;5.22;2.35;;;;;;;24.55;43.69;93723.78;5130371;28;20022;-90
2022/07/08 14:49:41;;;;;;;3.92;2.30;;;;;;;24.56;42.24;93708.97;5131979;28;20086;-91
2022/07/08 14:52:06;;;;;;;3.90;2.45;;;;;;;24.56;42.06;93712.47;5114286;28;20016;-90
2022/07/08 14:54:32;;;;;;;4.15;2.67;;;;;;;24.61;42.53;93706.59;5131772;28;20030;-89
2022/07/08 14:56:58;;;;;;;5.68;3.20;;;;;;;24.56;42.87;93704.28;5113649;28;20012;-92
2022/07/08 14:59:23;;;;;;;4.65;2.78;;;;;;;24.68;41.21;93699.50;5108714;28;20020;-91
2022/07/08 15:01:49;;;;;;;4.20;2.72;;;;;;;24.70;40.34;93708.06;5107812;28;20043;-87
2022/07/08 15:04:14;;;;;;;4.55;2.33;;;;;;;24.72;40.58;93702.97;5125342;28;20016;-86
2022/07/08 15:06:40;;;;;;;4.78;2.72;;;;;;;24.75;40.52;93697.50;5125594;28;20020;-87
2022/07/08 15:09:06;;;;;;;6.38;2.30;;;;;;;24.78;40.36;93693.16;5125197;28;20313;-88
2022/07/08 15:11:31;;;;;;;4.15;2.90;;;;;;;24.76;41.23;93688.13;5124851;28;20931;-87
2022/07/08 15:13:58;;;;;;;2.83;2.03;;;;;;;24.83;40.68;93698.94;5107238;28;20024;-88
2022/07/08 15:16:24;;;;;;;4.22;2.75;;;;;;;24.86;39.65;93699.31;5125184;28;20031;-87
2022/07/08 15:18:49;;;;;;;6.45;3.03;;;;;;;25.01;40.47;93684.31;5124734;28;20024;-86
2022/07/08 15:21:15;;;;;;;3.40;2.22;;;;;;;25.04;39.05;93697.13;5125377;28;20103;-87
2022/07/08 15:23:40;;;;;;;4.50;2.97;;;;;;;25.15;39.39;93691.53;5107423;28;20225;-89
2022/07/08 15:26:09;;;;;;;4.63;3.05;;;;;;;25.25;38.89;93700.78;5125187;28;20034;-86
2022/07/08 15:28:38;;;;;;;4.55;3.28;;;;;;;25.38;38.89;93693.56;5125332;28;20019;-87
2022/07/08 15:31:04;;;;;;;4.03;2.55;;;;;;;25.41;39.28;93703.66;5124857;28;20116;-91
2022/07/08 15:33:41;;;;;;;4.22;2.90;;;;;;;25.48;38.79;93705.50;5127559;28;20030;-94
2022/07/08 15:36:16;;;;;;;4.10;3.05;;;;;;;25.48;38.16;93709.00;5126599;28;20030;-93
2022/07/08 15:38:50;;;;;;;3.67;2.50;;;;;;;25.47;37.96;93707.47;5126637;28;20023;-92
2022/07/08 15:41:16;;;;;;;3.15;2.40;;;;;;;25.53;37.96;93715.97;5108353;28;20027;-88
2022/07/08 15:43:41;;;;;;;6.57;2.80;;;;;;;25.50;38.77;93725.75;5125915;28;20068;-90
2022/07/08 15:46:07;;;;;;;5.40;2.72;;;;;;;25.48;38.41;93724.63;5127655;28;20071;-92
2022/07/08 15:48:34;;;;;;;3.30;2.60;;;;;;;25.37;36.99;93722.03;5125742;28;20019;-89
2022/07/08 15:51:00;;;;;;;3.40;2.60;;;;;;;25.24;37.40;93724.56;5125406;28;20019;-89
2022/07/08 15:53:26;;;;;;;5.05;3.28;;;;;;;25.09;38.09;93717.72;5124495;28;20026;-88
2022/07/08 15:55:51;;;;;;;3.65;2.55;;;;;;;25.06;37.96;93724.00;5124530;28;20020;-88
2022/07/08 15:58:17;;;;;;;4.25;2.90;;;;;;;24.85;38.80;93725.78;5124998;28;20023;-94
2022/07/08 16:00:42;;;;;;;3.88;2.70;;;;;;;24.85;39.03;93731.22;5125198;28;20015;-89
2022/07/08 16:03:08;;;;;;;2.83;2.08;;;;;;;24.88;38.91;93724.22;5106344;28;20023;-83
2022/07/08 16:05:34;;;;;;;4.38;2.22;;;;;;;24.86;38.69;93719.16;5124510;28;20019;-87
2022/07/08 16:07:59;;;;;;;3.97;2.83;;;;;;;24.82;39.13;93721.91;5125004;28;20289;-95
2022/07/08 16:10:25;;;;;;;4.07;2.53;;;;;;;24.77;38.79;93716.13;5126149;28;20019;-93
2022/07/08 16:12:50;;;;;;;3.53;2.70;;;;;;;24.74;38.17;93714.25;5126008;28;20310;-94
2022/07/08 16:15:16;;;;;;;6.43;2.53;;;;;;;24.68;38.44;93710.41;5125571;28;20030;-91
2022/07/08 16:17:41;;;;;;;4.00;2.80;;;;;;;24.59;38.08;93711.69;5125977;28;20069;-91
2022/07/08 16:20:08;;;;;;;5.82;2.70;;;;;;;24.54;37.94;93728.44;5126535;28;20054;-92
2022/07/08 16:22:33;;;;;;;5.13;2.50;;;;;;;24.42;38.43;93720.78;5108356;28;20022;-94
2022/07/08 16:24:59;;;;;;;3.55;2.63;;;;;;;24.36;39.09;93717.72;5108237;28;20043;-89
2022/07/08 16:27:29;;;;;;;3.80;2.80;;;;;;;24.28;39.11;93721.69;5132449;28;20035;-96
2022/07/08 16:29:54;;;;;;;3.90;2.70;;;;;;;24.26;37.91;93720.53;5133054;28;20344;-94
2022/07/08 16:32:20;;;;;;;3.78;2.53;;;;;;;24.17;38.62;93721.03;5125662;28;20090;-90
2022/07/08 16:34:45;;;;;;;4.45;2.58;;;;;;;24.07;38.77;93719.94;5123700;28;20041;-88
2022/07/08 16:37:11;;;;;;;4.22;2.20;;;;;;;23.94;38.93;93725.09;5105394;28;20023;-87
2022/07/08 16:39:37;;;;;;;4.50;2.38;;;;;;;23.79;40.03;93729.91;5108075;28;20030;-89
2022/07/08 16:42:03;;;;;;;3.45;2.67;;;;;;;23.73;38.91;93719.78;5125374;28;20174;-90
2022/07/08 16:44:29;;;;;;;3.90;2.80;;;;;;;23.67;39.55;93716.75;5125263;28;20120;-96
2022/07/08 16:46:55;;;;;;;4.65;2.95;;;;;;;23.58;40.01;93722.59;5125851;28;20054;-96
2022/07/08 16:49:21;;;;;;;5.32;3.60;;;;;;;23.49;41.01;93716.84;5124710;28;20027;-91
2022/07/08 16:51:46;;;;;;;5.15;2.80;;;;;;;23.48;39.61;93719.97;5123879;28;20027;-90
2022/07/08 16:54:12;;;;;;;5.22;3.30;;;;;;;23.48;40.28;93722.69;5123896;28;20356;-89
2022/07/08 16:56:37;;;;;;;4.30;2.90;;;;;;;23.43;40.00;93713.78;5123880;28;20028;-84
2022/07/08 16:59:03;;;;;;;3.78;2.70;;;;;;;23.41;40.17;93729.72;5124236;28;20023;-88
2022/07/08 17:01:28;;;;;;;4.40;3.10;;;;;;;23.41;40.97;93726.22;5124151;28;20031;-89
2022/07/08 17:03:55;;;;;;;4.32;2.92;;;;;;;23.31;41.62;93727.84;5124455;28;20020;-91
2022/07/08 17:06:20;;;;;;;5.95;2.83;;;;;;;23.28;41.92;93731.34;5124367;28;20025;-89
2022/07/08 17:08:47;;;;;;;4.50;3.22;;;;;;;23.25;41.74;93734.09;5125295;28;20316;-94
2022/07/08 17:11:12;;;;;;;4.68;3.03;;;;;;;23.20;41.87;93738.00;5123768;28;20027;-85
2022/07/08 17:13:38;;;;;;;6.45;2.80;;;;;;;23.12;41.70;93731.03;5122973;28;20209;-86
2022/07/08 17:16:04;;;;;;;7.78;3.38;;;;;;;23.08;41.72;93738.44;5122684;28;20314;-85
2022/07/08 17:18:29;;;;;;;5.43;2.90;;;;;;;23.06;41.71;93736.13;5122789;28;20088;-84
2022/07/08 17:20:57;;;;;;;4.47;3.15;;;;;;;22.98;41.90;93737.31;5122959;28;20082;-84
2022/07/08 17:23:23;;;;;;;8.52;3.40;;;;;;;22.92;41.96;93739.66;5123013;28;20107;-87
2022/07/08 17:25:49;;;;;;;6.70;3.65;;;;;;;22.91;41.74;93740.81;5105252;28;20030;-84
2022/07/08 17:28:15;;;;;;;7.13;2.97;;;;;;;22.82;41.66;93740.47;5123181;28;20248;-86
2022/07/08 17:30:40;;;;;;;4.85;3.13;;;;;;;22.76;42.02;93742.03;5123184;28;20203;-83
2022/07/08 17:33:07;;;;;;;4.22;2.70;;;;;;;22.73;42.08;93748.25;5122994;28;20030;-86
2022/07/08 17:35:51;;;;;;;4.85;3.40;;;;;;;22.75;42.56;93751.34;5126092;28;20098;-96
2022/07/08 17:41:13;;;;;;;5.13;2.72;;;;;;;22.74;42.46;93757.97;5416062;23;20050;-91
2022/07/08 17:43:41;;;;;;;5.93;2.85;;;;;;;22.79;42.16;93765.69;5007615;28;20093;-91
2022/07/08 17:49:29;;;;;;;4.18;2.90;;;;;;;22.83;42.16;93775.38;5006340;28;20138;-92
2022/07/08 17:51:54;;;;;;;4.75;2.97;;;;;;;22.80;42.01;93768.03;5004598;28;20049;-87
2022/07/08 17:54:20;;;;;;;5.22;2.97;;;;;;;22.78;42.47;93762.22;5006430;28;20383;-87
2022/07/08 17:56:45;;;;;;;3.55;2.20;;;;;;;22.76;42.86;93769.22;5006674;28;20050;-84
2022/07/08 17:59:11;;;;;;;6.85;3.40;;;;;;;22.74;42.83;93782.41;5006550;28;20030;-88
2022/07/08 18:01:37;;;;;;;5.65;2.97;;;;;;;22.71;43.08;93772.31;5006837;28;20034;-87
2022/07/08 18:04:02;;;;;;;6.57;2.13;;;;;;;22.70;43.24;93778.94;5006910;28;20026;-86
2022/07/08 18:06:28;;;;;;;3.92;2.63;;;;;;;22.68;43.19;93789.41;5007173;28;20073;-86
2022/07/08 18:08:53;;;;;;;8.02;2.05;;;;;;;22.68;42.89;93783.97;5007012;28;20198;-86
2022/07/08 18:11:20;;;;;;;4.93;2.30;;;;;;;22.68;42.53;93786.69;5007049;28;20049;-86
2022/07/08 18:13:45;;;;;;;6.40;2.20;;;;;;;22.68;42.51;93794.84;5006798;28;20093;-85
2022/07/08 18:16:12;;;;;;;6.85;2.70;;;;;;;22.69;42.53;93797.16;5006795;28;20037;-86
2022/07/08 18:18:38;;;;;;;4.95;2.47;;;;;;;22.69;42.92;93799.88;5005550;28;20030;-87
2022/07/08 18:21:03;;;;;;;3.67;2.75;;;;;;;22.69;43.30;93801.81;5006277;28;20320;-88
2022/07/08 18:23:29;;;;;;;4.47;3.22;;;;;;;22.62;43.91;93808.03;5006371;28;20089;-87
2022/07/08 18:25:54;;;;;;;4.90;3.25;;;;;;;22.57;44.38;93808.44;5006320;28;20265;-86
2022/07/08 18:28:20;;;;;;;3.38;2.63;;;;;;;22.56;45.88;93825.91;5006560;28;20042;-86